createdAt,value
2018-06-05T00:01:04.811Z,20.17
2018-06-05T00:03:34.880Z,20.18
2018-06-05T00:06:04.874Z,20.13
2018-06-05T00:08:34.901Z,20.06
2018-06-05T00:11:04.833Z,19.97
2018-06-05T00:13:34.883Z,19.95
2018-06-05T00:16:04.967Z,19.96
2018-06-05T00:18:35.013Z,19.98
2018-06-05T00:21:04.996Z,19.97
2018-06-05T00:23:35.043Z,19.97
2018-06-05T00:26:05.021Z,19.98
2018-06-05T00:28:38.826Z,19.94
2018-06-05T00:31:09.788Z,19.91
2018-06-05T00:33:38.974Z,19.87
2018-06-05T00:36:08.146Z,19.83
2018-06-05T00:38:37.415Z,19.79
2018-06-05T00:41:11.215Z,19.76
2018-06-05T00:43:40.326Z,19.76
2018-06-05T00:46:15.056Z,19.74
2018-06-05T00:48:44.201Z,19.70
2018-06-05T00:51:24.444Z,19.72
2018-06-05T00:53:53.615Z,19.72
2018-06-05T00:56:22.746Z,19.70
2018-06-05T00:58:51.846Z,19.71
2018-06-05T01:01:22.529Z,19.72
2018-06-05T01:03:51.734Z,19.74
2018-06-05T01:06:20.848Z,19.76
2018-06-05T01:08:50.086Z,19.78
2018-06-05T01:11:22.512Z,19.71
2018-06-05T01:13:51.670Z,19.64
2018-06-05T01:16:20.838Z,19.59
2018-06-05T01:18:49.962Z,19.60
2018-06-05T01:21:19.254Z,19.57
2018-06-05T01:23:49.018Z,19.56
2018-06-05T01:26:18.232Z,19.55
2018-06-05T01:28:47.361Z,19.53
2018-06-05T01:31:16.447Z,19.48
2018-06-05T01:33:45.670Z,19.44
2018-06-05T01:36:14.798Z,19.40
2018-06-05T01:38:43.932Z,19.36
2018-06-05T01:41:14.491Z,19.34
2018-06-05T01:43:43.679Z,19.33
2018-06-05T01:46:12.831Z,19.27
2018-06-05T01:48:41.947Z,19.24
2018-06-05T01:51:11.090Z,19.19
2018-06-05T01:53:40.286Z,19.17
2018-06-05T01:56:09.452Z,19.15
2018-06-05T01:58:45.784Z,19.14
2018-06-05T02:01:15.188Z,19.12
2018-06-05T02:03:44.296Z,19.09
2018-06-05T02:06:14.289Z,19.12
2018-06-05T02:08:43.380Z,19.12
2018-06-05T02:11:13.205Z,19.09
2018-06-05T02:13:42.361Z,19.06
2018-06-05T02:16:21.123Z,19.06
2018-06-05T02:18:50.334Z,19.04
2018-06-05T02:21:19.519Z,18.99
2018-06-05T02:23:48.697Z,18.95
2018-06-05T02:26:18.635Z,18.93
2018-06-05T02:28:49.520Z,18.92
2018-06-05T02:31:18.637Z,18.89
2018-06-05T02:33:47.810Z,18.89
2018-06-05T02:36:17.005Z,18.88
2018-06-05T02:38:49.914Z,18.84
2018-06-05T02:41:19.063Z,18.66
2018-06-05T02:43:48.177Z,18.56
2018-06-05T02:46:17.321Z,18.49
2018-06-05T02:48:46.465Z,18.38
2018-06-05T02:51:20.332Z,18.32
2018-06-05T02:53:49.427Z,18.32
2018-06-05T02:56:22.045Z,18.26
2018-06-05T02:58:51.177Z,18.25
2018-06-05T03:01:20.316Z,18.26
2018-06-05T03:03:49.494Z,18.28
2018-06-05T03:06:18.665Z,18.27
2018-06-05T03:08:47.801Z,18.31
2018-06-05T03:11:17.089Z,18.36
2018-06-05T03:13:46.205Z,18.41
2018-06-05T03:16:15.389Z,18.31
2018-06-05T03:18:44.557Z,18.06
2018-06-05T03:21:14.093Z,18.01
2018-06-05T03:23:44.286Z,17.97
2018-06-05T03:26:13.608Z,17.95
2018-06-05T03:28:42.761Z,17.93
2018-06-05T03:31:12.681Z,17.92
2018-06-05T03:33:41.873Z,17.94
2018-06-05T03:36:11.053Z,17.87
2018-06-05T03:38:41.039Z,17.81
2018-06-05T03:41:18.545Z,17.63
2018-06-05T03:43:47.727Z,17.43
2018-06-05T03:46:16.883Z,17.35
2018-06-05T03:48:53.345Z,17.32
2018-06-05T03:51:23.811Z,17.32
2018-06-05T03:54:02.403Z,17.32
2018-06-05T03:56:32.654Z,17.32
2018-06-05T03:59:01.710Z,17.35
2018-06-05T04:01:30.846Z,17.37
2018-06-05T04:04:01.729Z,17.37
2018-06-05T04:06:30.914Z,17.38
2018-06-05T04:09:01.149Z,17.40
2018-06-05T04:11:30.385Z,17.40
2018-06-05T04:13:59.991Z,17.42
2018-06-05T04:16:29.314Z,17.43
2018-06-05T04:18:59.200Z,17.46
2018-06-05T04:21:28.372Z,17.53
2018-06-05T04:23:57.478Z,17.54
2018-06-05T04:26:26.717Z,17.59
2018-06-05T04:28:55.860Z,17.68
2018-06-05T04:31:25.170Z,17.73
2018-06-05T04:33:54.292Z,17.84
2018-06-05T04:36:23.594Z,17.91
2018-06-05T04:38:52.840Z,17.95
2018-06-05T04:41:22.042Z,17.99
2018-06-05T04:43:51.217Z,18.11
2018-06-05T04:46:20.380Z,18.10
2018-06-05T04:48:49.596Z,18.21
2018-06-05T04:51:18.824Z,18.24
2018-06-05T04:53:48.360Z,18.34
2018-06-05T04:56:17.506Z,18.41
2018-06-05T04:58:47.276Z,18.49
2018-06-05T05:01:16.397Z,18.56
2018-06-05T05:03:45.532Z,18.63
2018-06-05T05:06:14.658Z,18.68
2018-06-05T05:08:44.255Z,18.72
2018-06-05T05:11:13.346Z,18.79
2018-06-05T05:13:42.458Z,18.84
2018-06-05T05:16:17.639Z,18.89
2018-06-05T05:18:46.724Z,18.96
2018-06-05T05:21:15.813Z,18.99
2018-06-05T05:23:44.903Z,19.06
2018-06-05T05:26:13.995Z,19.14
2018-06-05T05:28:43.102Z,19.22
2018-06-05T05:31:12.222Z,19.28
2018-06-05T05:33:46.670Z,19.36
2018-06-05T05:36:15.837Z,19.44
2018-06-05T05:38:44.978Z,19.48
2018-06-05T05:41:14.137Z,19.54
2018-06-05T05:43:43.263Z,19.60
2018-06-05T05:46:13.629Z,19.63
2018-06-05T05:48:42.814Z,19.67
2018-06-05T05:51:15.200Z,19.73
2018-06-05T05:53:44.396Z,19.80
2018-06-05T05:56:19.529Z,19.86
2018-06-05T05:58:48.886Z,19.89
2018-06-05T06:01:27.965Z,19.97
2018-06-05T06:03:57.145Z,20.03
2018-06-05T06:06:27.066Z,20.13
2018-06-05T06:08:56.218Z,20.22
2018-06-05T06:11:25.354Z,20.27
2018-06-05T06:13:54.455Z,20.34
2018-06-05T06:16:23.688Z,20.38
2018-06-05T06:18:52.851Z,20.46
2018-06-05T06:21:22.139Z,20.54
2018-06-05T06:23:51.282Z,20.59
2018-06-05T06:26:27.932Z,20.64
2018-06-05T06:28:57.080Z,20.74
2018-06-05T06:31:26.192Z,20.81
2018-06-05T06:33:59.296Z,20.91
2018-06-05T06:36:28.482Z,20.98
2018-06-05T06:38:58.376Z,21.04
2018-06-05T06:41:32.974Z,21.11
2018-06-05T06:44:13.206Z,21.20
2018-06-05T06:46:42.290Z,21.24
2018-06-05T06:49:11.427Z,21.22
2018-06-05T06:51:40.544Z,21.25
2018-06-05T06:54:10.113Z,21.39
2018-06-05T06:56:40.005Z,21.47
2018-06-05T06:59:09.985Z,21.56
2018-06-05T07:01:39.073Z,21.67
2018-06-05T07:04:08.312Z,21.72
2018-06-05T07:06:37.493Z,21.80
2018-06-05T07:09:08.771Z,21.84
2018-06-05T07:11:37.958Z,21.88
2018-06-05T07:14:07.092Z,21.98
2018-06-05T07:16:36.255Z,22.08
2018-06-05T07:19:05.407Z,22.14
2018-06-05T07:21:34.688Z,22.18
2018-06-05T07:24:03.907Z,22.18
2018-06-05T07:26:33.065Z,22.30
2018-06-05T07:29:02.197Z,22.37
2018-06-05T07:31:31.340Z,22.44
2018-06-05T07:34:00.539Z,22.53
2018-06-05T07:36:29.661Z,22.57
2018-06-05T07:38:58.872Z,22.59
2018-06-05T07:41:33.890Z,22.69
2018-06-05T07:44:03.129Z,22.75
2018-06-05T07:46:32.282Z,22.83
2018-06-05T07:49:01.445Z,22.85
2018-06-05T07:51:30.572Z,22.87
2018-06-05T07:53:59.769Z,22.97
2018-06-05T07:56:28.973Z,23.01
2018-06-05T07:59:03.607Z,23.08
2018-06-05T08:01:32.824Z,23.14
2018-06-05T08:04:02.031Z,23.25
2018-06-05T08:06:34.751Z,23.31
2018-06-05T08:09:04.129Z,23.40
2018-06-05T08:11:33.995Z,23.42
2018-06-05T08:14:03.355Z,23.49
2018-06-05T08:16:32.490Z,23.55
2018-06-05T08:19:01.662Z,23.62
2018-06-05T08:21:30.939Z,23.67
2018-06-05T08:24:01.039Z,23.73
2018-06-05T08:27:01.115Z,23.78
2018-06-05T08:29:30.207Z,23.78
2018-06-05T08:32:02.624Z,23.83
2018-06-05T08:34:31.732Z,23.85
2018-06-05T08:37:00.877Z,24.01
2018-06-05T08:39:29.989Z,24.04
2018-06-05T08:41:59.225Z,24.07
2018-06-05T08:44:28.429Z,24.13
2018-06-05T08:46:57.535Z,24.21
2018-06-05T08:49:26.713Z,24.23
2018-06-05T08:51:55.851Z,24.29
2018-06-05T08:54:25.014Z,24.35
2018-06-05T08:56:54.141Z,24.35
2018-06-05T08:59:23.821Z,24.49
2018-06-05T09:01:52.949Z,24.60
2018-06-05T09:04:22.089Z,24.63
2018-06-05T09:06:51.226Z,24.75
2018-06-05T09:09:25.960Z,24.80
2018-06-05T09:11:55.143Z,24.86
2018-06-05T09:14:24.367Z,24.92
2018-06-05T09:16:59.615Z,25.05
2018-06-05T09:19:28.747Z,25.23
2018-06-05T09:21:58.046Z,25.34
2018-06-05T09:24:37.733Z,25.43
2018-06-05T09:27:06.872Z,25.49
2018-06-05T09:29:36.275Z,25.51
2018-06-05T09:32:05.456Z,25.65
2018-06-05T09:34:34.722Z,25.86
2018-06-05T09:37:03.869Z,26.06
2018-06-05T09:39:33.089Z,26.23
2018-06-05T09:42:02.291Z,26.33
2018-06-05T09:44:31.478Z,26.40
2018-06-05T09:47:00.637Z,26.49
2018-06-05T09:49:29.790Z,26.58
2018-06-05T09:51:59.126Z,26.70
2018-06-05T09:54:28.291Z,26.82
2018-06-05T09:56:57.531Z,26.71
2018-06-05T09:59:26.715Z,26.79
2018-06-05T10:01:55.957Z,26.89
2018-06-05T10:04:25.154Z,26.97
2018-06-05T10:07:04.108Z,26.91
2018-06-05T10:09:33.252Z,26.78
2018-06-05T10:12:02.468Z,26.70
2018-06-05T10:14:37.200Z,26.84
2018-06-05T10:17:06.385Z,26.94
2018-06-05T10:19:35.586Z,26.81
2018-06-05T10:22:04.765Z,26.67
2018-06-05T10:24:33.933Z,26.61
2018-06-05T10:27:03.105Z,26.72
2018-06-05T10:29:37.684Z,26.83
2018-06-05T10:32:06.849Z,26.94
2018-06-05T10:34:36.136Z,27.07
2018-06-05T10:37:05.522Z,27.17
2018-06-05T10:39:34.632Z,27.32
2018-06-05T10:42:03.915Z,27.37
2018-06-05T10:44:33.035Z,27.31
2018-06-05T10:47:02.803Z,27.41
2018-06-05T10:49:35.872Z,27.41
2018-06-05T10:52:05.120Z,27.32
2018-06-05T10:54:34.276Z,27.31
2018-06-05T10:57:03.425Z,27.21
2018-06-05T10:59:32.617Z,27.06
2018-06-05T11:02:01.751Z,26.95
2018-06-05T11:04:30.884Z,27.14
2018-06-05T11:07:00.060Z,27.37
2018-06-05T11:09:29.258Z,27.55
2018-06-05T11:11:58.556Z,27.69
2018-06-05T11:14:27.752Z,27.83
2018-06-05T11:16:57.019Z,28.01
2018-06-05T11:19:26.176Z,28.11
2018-06-05T11:21:55.308Z,28.24
2018-06-05T11:24:24.490Z,28.33
2018-06-05T11:26:53.620Z,28.44
2018-06-05T11:29:22.836Z,28.46
2018-06-05T11:31:51.976Z,28.33
2018-06-05T11:34:21.898Z,28.22
2018-06-05T11:36:52.094Z,28.18
2018-06-05T11:39:31.153Z,28.23
2018-06-05T11:42:01.099Z,28.37
2018-06-05T11:44:30.209Z,28.48
2018-06-05T11:46:59.416Z,28.56
2018-06-05T11:49:28.544Z,28.61
2018-06-05T11:51:57.746Z,28.55
2018-06-05T11:54:26.885Z,28.51
2018-06-05T11:56:55.975Z,28.48
2018-06-05T11:59:25.736Z,28.53
2018-06-05T12:01:54.976Z,28.37
2018-06-05T12:04:24.132Z,28.30
2018-06-05T12:06:53.289Z,28.35
2018-06-05T12:09:22.365Z,28.45
2018-06-05T12:11:55.208Z,28.53
2018-06-05T12:14:25.125Z,28.69
2018-06-05T12:16:54.308Z,28.78
2018-06-05T12:19:23.578Z,28.84
2018-06-05T12:21:52.745Z,28.96
2018-06-05T12:24:24.152Z,29.03
2018-06-05T12:26:53.345Z,29.04
2018-06-05T12:29:22.468Z,29.12
2018-06-05T12:31:51.623Z,29.22
2018-06-05T12:34:20.754Z,29.30
2018-06-05T12:36:51.144Z,29.19
2018-06-05T12:39:20.362Z,29.03
2018-06-05T12:41:49.627Z,29.08
2018-06-05T12:44:25.088Z,29.26
2018-06-05T12:46:54.203Z,29.34
2018-06-05T12:49:23.335Z,29.34
2018-06-05T12:51:53.717Z,29.38
2018-06-05T12:54:22.936Z,29.52
2018-06-05T12:56:52.102Z,29.65
2018-06-05T12:59:21.263Z,29.83
2018-06-05T13:01:50.417Z,29.73
2018-06-05T13:04:19.601Z,29.72
2018-06-05T13:06:48.746Z,29.97
2018-06-05T13:09:21.796Z,30.07
2018-06-05T13:11:50.965Z,30.19
2018-06-05T13:14:20.119Z,30.33
2018-06-05T13:16:49.252Z,30.33
2018-06-05T13:19:18.400Z,29.66
2018-06-05T13:21:47.466Z,29.22
2018-06-05T13:24:16.557Z,29.49
2018-06-05T13:26:45.710Z,29.86
2018-06-05T13:29:15.579Z,30.00
2018-06-05T13:32:03.333Z,30.25
2018-06-05T13:34:32.526Z,30.69
2018-06-05T13:37:04.593Z,30.95
2018-06-05T13:39:33.850Z,31.18
2018-06-05T13:42:03.388Z,31.23
2018-06-05T13:44:42.199Z,31.46
2018-06-05T13:47:11.322Z,31.64
2018-06-05T13:49:40.481Z,31.52
2018-06-05T13:52:11.745Z,31.51
2018-06-05T13:54:40.992Z,31.84
2018-06-05T13:57:10.126Z,31.95
2018-06-05T13:59:39.278Z,32.28
2018-06-05T14:02:08.447Z,32.47
2018-06-05T14:04:37.667Z,32.62
2018-06-05T14:07:06.859Z,32.76
2018-06-05T14:09:36.034Z,33.23
2018-06-05T14:12:06.238Z,33.73
2018-06-05T14:14:35.331Z,33.05
2018-06-05T14:17:04.421Z,32.97
2018-06-05T14:19:33.533Z,33.23
2018-06-05T14:22:02.663Z,33.13
2018-06-05T14:24:31.779Z,33.06
2018-06-05T14:27:00.921Z,33.11
2018-06-05T14:29:30.013Z,33.45
2018-06-05T14:31:59.183Z,34.07
2018-06-05T14:34:31.756Z,34.52
2018-06-05T14:37:00.945Z,35.06
2018-06-05T14:39:31.108Z,35.35
2018-06-05T14:42:00.258Z,35.16
2018-06-05T14:44:29.389Z,35.45
2018-06-05T14:46:58.569Z,35.41
2018-06-05T14:49:27.733Z,35.36
2018-06-05T14:51:56.879Z,35.17
2018-06-05T14:54:26.063Z,35.35
2018-06-05T14:56:55.271Z,35.55
2018-06-05T14:59:31.229Z,35.83
2018-06-05T15:02:00.520Z,36.11
2018-06-05T15:04:29.684Z,36.11
2018-06-05T15:06:58.875Z,36.24
2018-06-05T15:09:28.032Z,36.05
2018-06-05T15:12:01.298Z,35.75
2018-06-05T15:14:30.664Z,35.43
2018-06-05T15:16:59.867Z,35.39
2018-06-05T15:19:29.002Z,35.44
2018-06-05T15:21:58.119Z,35.62
2018-06-05T15:24:27.359Z,35.71
2018-06-05T15:26:56.545Z,35.54
2018-06-05T15:29:25.658Z,35.30
2018-06-05T15:31:54.771Z,35.10
2018-06-05T15:34:23.803Z,35.35
2018-06-05T15:36:52.973Z,35.12
2018-06-05T15:39:22.089Z,34.58
2018-06-05T15:41:51.291Z,34.50
2018-06-05T15:44:20.398Z,34.61
2018-06-05T15:46:49.527Z,34.51
2018-06-05T15:49:18.691Z,34.63
2018-06-05T15:51:47.846Z,34.79
2018-06-05T15:54:20.668Z,34.58
2018-06-05T15:56:49.837Z,34.02
2018-06-05T15:59:18.957Z,33.97
2018-06-05T16:01:48.057Z,34.03
2018-06-05T16:04:17.232Z,34.03
2018-06-05T16:06:46.346Z,33.52
2018-06-05T16:19:04.765Z,33.40
2018-06-05T16:21:33.858Z,31.48
2018-06-05T16:24:03.148Z,31.44
2018-06-05T16:26:32.255Z,31.27
2018-06-05T16:29:01.500Z,31.15
2018-06-05T16:31:30.969Z,30.94
2018-06-05T16:34:00.074Z,30.71
2018-06-05T16:36:29.193Z,30.26
2018-06-05T16:38:58.382Z,29.90
2018-06-05T16:41:27.622Z,29.80
2018-06-05T16:43:56.763Z,29.65
2018-06-05T16:46:25.967Z,29.56
2018-06-05T16:48:55.107Z,29.45
2018-06-05T16:51:24.251Z,29.25
2018-06-05T16:53:53.319Z,29.13
2018-06-05T16:56:22.499Z,28.98
2018-06-05T16:58:51.590Z,28.94
2018-06-05T17:01:20.739Z,28.87
2018-06-05T17:03:50.058Z,28.82
2018-06-05T17:06:19.264Z,28.74
2018-06-05T17:08:48.430Z,28.60
2018-06-05T17:11:21.111Z,28.45
2018-06-05T17:13:50.322Z,28.27
2018-06-05T17:16:20.434Z,28.16
2018-06-05T17:18:49.507Z,28.09
2018-06-05T17:21:18.612Z,27.99
2018-06-05T17:23:48.120Z,27.93
2018-06-05T17:26:21.655Z,27.84
2018-06-05T17:28:50.788Z,27.80
2018-06-05T17:31:20.028Z,27.77
2018-06-05T17:33:49.236Z,27.70
2018-06-05T17:36:18.389Z,27.63
2018-06-05T17:38:48.249Z,27.56
2018-06-05T17:41:18.480Z,27.50
2018-06-05T17:43:48.364Z,27.33
2018-06-05T17:46:18.483Z,27.23
2018-06-05T17:48:48.502Z,27.16
2018-06-05T17:51:18.450Z,27.06
2018-06-05T17:53:48.420Z,27.04
2018-06-05T17:56:21.785Z,27.02
2018-06-05T17:58:50.987Z,26.98
2018-06-05T18:01:20.114Z,26.96
2018-06-05T18:03:49.349Z,26.89
2018-06-05T18:06:18.564Z,26.77
2018-06-05T18:08:48.581Z,26.61
2018-06-05T18:11:19.496Z,26.37
2018-06-05T18:13:48.728Z,26.20
2018-06-05T18:16:17.869Z,26.04
2018-06-05T18:18:47.036Z,25.92
2018-06-05T18:21:16.558Z,25.82
2018-06-05T18:23:45.754Z,25.70
2018-06-05T18:26:15.896Z,25.63
2018-06-05T18:28:45.091Z,25.58
2018-06-05T18:31:15.063Z,25.49
2018-06-05T18:33:44.222Z,25.45
2018-06-05T18:36:13.532Z,25.39
2018-06-05T18:38:42.688Z,25.35
2018-06-05T18:41:12.027Z,25.33
2018-06-05T18:43:41.334Z,25.28
2018-06-05T18:46:10.566Z,25.19
2018-06-05T18:48:39.821Z,25.13
2018-06-05T18:54:00.993Z,24.96
2018-06-05T18:56:30.134Z,24.89
2018-06-05T18:58:59.659Z,24.80
2018-06-05T19:01:28.839Z,24.70
2018-06-05T19:03:58.051Z,24.65
2018-06-05T19:06:32.758Z,24.59
2018-06-05T19:09:01.899Z,24.53
2018-06-05T19:13:54.779Z,24.42
2018-06-05T19:16:24.013Z,24.38
2018-06-05T19:18:53.188Z,24.31
2018-06-05T19:21:22.472Z,24.28
2018-06-05T19:23:51.778Z,24.23
2018-06-05T19:26:21.095Z,24.21
2018-06-05T19:28:50.299Z,24.17
2018-06-05T19:31:29.454Z,24.13
2018-06-05T19:33:58.672Z,24.07
2018-06-05T19:36:27.860Z,24.01
2018-06-05T19:38:57.106Z,23.97
2018-06-05T19:41:26.312Z,23.92
2018-06-05T19:43:55.673Z,23.87
2018-06-05T19:46:24.870Z,23.81
2018-06-05T19:48:54.031Z,23.75
2018-06-05T19:51:23.243Z,23.73
2018-06-05T19:53:52.575Z,23.69
2018-06-05T19:56:21.696Z,23.67
2018-06-05T19:58:50.827Z,23.60
2018-06-05T20:01:20.881Z,23.57
2018-06-05T20:03:50.040Z,23.53
2018-06-05T20:06:19.254Z,23.48
2018-06-05T20:08:50.080Z,23.43
2018-06-05T20:11:19.262Z,23.37
2018-06-05T20:13:48.485Z,23.33
2018-06-05T20:16:23.521Z,23.27
2018-06-05T20:18:52.742Z,23.24
2018-06-05T20:21:22.488Z,23.17
2018-06-05T20:23:52.574Z,23.14
2018-06-05T20:26:26.161Z,23.08
2018-06-05T20:28:55.422Z,23.04
2018-06-05T20:31:24.585Z,22.99
2018-06-05T20:33:53.770Z,22.92
2018-06-05T20:36:23.032Z,22.94
2018-06-05T20:38:52.738Z,22.91
2018-06-05T20:41:23.167Z,22.87
2018-06-05T20:43:52.760Z,22.83
2018-06-05T20:46:22.767Z,22.76
2018-06-05T20:48:53.246Z,22.69
2018-06-05T20:51:22.766Z,22.62
2018-06-05T20:53:52.761Z,22.55
2018-06-05T20:56:23.777Z,22.48
2018-06-05T20:58:53.078Z,22.41
2018-06-05T21:01:25.910Z,22.35
2018-06-05T21:03:55.045Z,22.31
2018-06-05T21:06:24.262Z,22.24
2018-06-05T21:08:53.366Z,22.18
2018-06-05T21:11:24.461Z,22.13
2018-06-05T21:13:53.680Z,22.07
2018-06-05T21:16:23.037Z,22.01
2018-06-05T21:18:53.090Z,21.94
2018-06-05T21:21:23.276Z,21.89
2018-06-05T21:23:53.359Z,21.84
2018-06-05T21:26:24.228Z,21.81
2018-06-05T21:28:53.418Z,21.78
2018-06-05T21:31:23.250Z,21.74
2018-06-05T21:33:53.300Z,21.71
2018-06-05T21:36:23.413Z,21.69
2018-06-05T21:38:53.311Z,21.66
2018-06-05T21:41:28.367Z,21.65
2018-06-05T21:43:57.555Z,21.62
2018-06-05T21:46:26.692Z,21.60
2018-06-05T21:48:55.836Z,21.57
2018-06-05T21:51:25.349Z,21.52
2018-06-05T21:53:54.450Z,21.48
2018-06-05T21:56:23.690Z,21.44
2018-06-05T21:58:55.283Z,21.44
2018-06-05T22:01:30.259Z,21.40
2018-06-05T22:03:59.433Z,21.35
2018-06-05T22:06:28.504Z,21.30
2018-06-05T22:08:57.601Z,21.27
2018-06-05T22:11:26.726Z,21.23
2018-06-05T22:13:55.836Z,21.19
2018-06-05T22:16:25.620Z,21.17
2018-06-05T22:18:54.793Z,21.17
2018-06-05T22:21:23.874Z,21.16
2018-06-05T22:23:53.779Z,21.13
2018-06-05T22:26:29.501Z,21.13
2018-06-05T22:28:59.534Z,21.11
2018-06-05T22:31:28.705Z,21.09
2018-06-05T22:33:57.911Z,21.09
2018-06-05T22:36:27.043Z,21.08
2018-06-05T22:38:56.515Z,21.07
2018-06-05T22:41:26.527Z,21.06
2018-06-05T22:43:56.557Z,21.04
2018-06-05T22:46:26.530Z,20.98
2018-06-05T22:48:56.713Z,21.00
2018-06-05T22:51:26.800Z,20.97
2018-06-05T22:53:56.671Z,20.96
2018-06-05T22:56:26.713Z,20.95
2018-06-05T22:58:57.391Z,20.91
2018-06-05T23:01:26.832Z,20.87
2018-06-05T23:03:56.788Z,20.87
2018-06-05T23:06:26.739Z,20.86
2018-06-05T23:08:56.929Z,20.80
2018-06-05T23:11:26.899Z,20.81
2018-06-05T23:13:56.955Z,20.81
2018-06-05T23:16:26.947Z,20.82
2018-06-05T23:18:56.983Z,20.79
2018-06-05T23:21:28.507Z,20.76
2018-06-05T23:23:57.645Z,20.74
2018-06-05T23:26:27.113Z,20.70
2018-06-05T23:29:02.317Z,20.68
2018-06-05T23:31:31.484Z,20.66
2018-06-05T23:34:00.669Z,20.62
2018-06-05T23:36:29.819Z,20.59
2018-06-05T23:38:58.939Z,20.58
2018-06-05T23:41:28.152Z,20.56
2018-06-05T23:43:57.359Z,20.54
2018-06-05T23:46:27.367Z,20.48
2018-06-05T23:48:57.385Z,20.48
2018-06-05T23:51:28.192Z,20.45
2018-06-05T23:53:57.434Z,20.46
2018-06-05T23:56:27.481Z,20.43
2018-06-05T23:58:57.427Z,20.42
